Time;durP1;ratioP1;P1;durP2;ratioP2;P2;SDS_P1;SDS_P2;PMS_P1;PMS_P2;Temp;Humidity;BMP_temperature;BMP_pressure;BME280_temperature;BME280_humidity;BME280_pressure;Samples;Min_cycle;Max_cycle;Signal;HPM_P1;HPM_P2
2023/04/29 00:00:46;;;;;;;1.50;1.27;;;;;;;9.56;80.59;99324.91;5131686;27;20209;-75
2023/04/29 00:03:13;;;;;;;2.83;1.60;;;;;;;9.48;81.34;99322.81;5131745;27;20580;-76
2023/04/29 00:05:39;;;;;;;1.60;1.50;;;;;;;9.51;81.09;99312.41;5131879;27;20208;-75
2023/04/29 00:08:06;;;;;;;2.60;1.60;;;;;;;9.50;80.64;99315.91;5131573;27;21456;-76
2023/04/29 00:10:33;;;;;;;1.30;1.20;;;;;;;9.60;80.50;99309.31;5131262;27;20273;-75
2023/04/29 00:13:00;;;;;;;2.63;1.90;;;;;;;9.47;81.08;99314.34;5131682;27;20273;-75
2023/04/29 00:15:26;;;;;;;2.97;1.63;;;;;;;9.61;79.61;99305.81;5131511;27;20217;-75
2023/04/29 00:17:55;;;;;;;1.53;1.30;;;;;;;9.57;80.91;99306.94;5131441;27;20668;-76
2023/04/29 00:20:22;;;;;;;1.97;1.30;;;;;;;9.64;79.44;99308.16;5131402;27;20213;-76
2023/04/29 00:22:48;;;;;;;2.20;1.43;;;;;;;9.68;79.27;99303.69;5131329;27;20204;-76
2023/04/29 00:25:15;;;;;;;1.83;1.43;;;;;;;9.78;77.83;99296.25;5131459;27;20231;-76
2023/04/29 00:27:42;;;;;;;1.40;1.30;;;;;;;9.84;78.05;99298.41;5131278;27;20204;-76
2023/04/29 00:30:10;;;;;;;2.07;1.63;;;;;;;9.78;78.06;99296.25;5131113;27;20220;-76
2023/04/29 00:32:37;;;;;;;1.50;1.10;;;;;;;9.87;77.39;99293.91;5130980;27;20322;-76
2023/04/29 00:35:06;;;;;;;1.07;0.80;;;;;;;9.88;77.31;99289.59;5131000;27;20217;-75
2023/04/29 00:37:33;;;;;;;1.40;1.27;;;;;;;9.93;77.18;99297.78;5131058;27;20205;-75
2023/04/29 00:40:00;;;;;;;4.20;1.77;;;;;;;9.90;78.13;99293.69;5131421;27;20277;-75
2023/04/29 00:42:27;;;;;;;2.40;1.77;;;;;;;9.93;76.49;99292.69;5131202;27;20203;-75
2023/04/29 00:44:54;;;;;;;2.10;1.30;;;;;;;9.87;76.91;99293.09;5130803;27;20217;-75
2023/04/29 00:47:21;;;;;;;1.23;1.07;;;;;;;9.90;76.50;99282.66;5130531;27;20204;-75
2023/04/29 00:49:48;;;;;;;2.80;1.63;;;;;;;9.81;76.98;99288.38;5131394;27;20289;-75
2023/04/29 00:52:17;;;;;;;1.60;1.27;;;;;;;9.83;77.62;99283.97;5130720;27;20232;-75
2023/04/29 00:54:44;;;;;;;3.83;1.40;;;;;;;9.84;77.75;99285.63;5130803;27;20280;-76
2023/04/29 00:57:11;;;;;;;1.07;1.00;;;;;;;9.80;78.50;99286.75;5130969;27;20639;-76
2023/04/29 00:59:38;;;;;;;1.30;0.93;;;;;;;9.85;77.14;99279.59;5131122;27;20289;-75
2023/04/29 01:02:05;;;;;;;1.37;1.20;;;;;;;9.82;77.77;99290.00;5130786;27;20836;-76
2023/04/29 01:04:32;;;;;;;1.67;1.50;;;;;;;9.80;77.51;99284.19;5130548;27;20235;-76
2023/04/29 01:07:13;;;;;;;1.33;1.23;;;;;;;9.79;77.99;99282.56;5130542;27;20198;-76
2023/04/29 01:10:00;;;;;;;1.83;1.50;;;;;;;9.68;78.25;99281.50;5131106;28;20472;-76
2023/04/29 01:12:35;;;;;;;1.63;1.40;;;;;;;9.66;78.85;99280.81;5130475;28;20228;-76
2023/04/29 01:15:06;;;;;;;1.00;0.90;;;;;;;9.62;78.12;99284.47;5130602;28;20208;-76
2023/04/29 01:17:40;;;;;;;2.23;1.37;;;;;;;9.57;78.25;99286.53;5130730;28;20594;-75
2023/04/29 01:20:09;;;;;;;1.63;1.37;;;;;;;9.35;81.49;99299.03;5130517;28;20212;-76
2023/04/29 01:22:38;;;;;;;1.30;1.20;;;;;;;9.13;85.33;99297.81;5130459;28;20262;-75
2023/04/29 01:25:07;;;;;;;2.17;1.70;;;;;;;8.73;87.65;99295.22;5130543;28;20216;-75
2023/04/29 01:27:41;;;;;;;4.23;1.80;;;;;;;8.18;90.72;99298.50;5130827;27;20263;-75
2023/04/29 01:30:14;;;;;;;1.60;1.30;;;;;;;8.13;93.00;99297.94;5130346;28;20223;-75
2023/04/29 01:32:58;;;;;;;1.30;1.20;;;;;;;8.29;93.67;99291.03;5130580;27;20236;-76
2023/04/29 01:35:44;;;;;;;0.73;0.70;;;;;;;8.08;94.83;99298.19;5130592;28;20216;-75
2023/04/29 01:38:23;;;;;;;0.80;0.80;;;;;;;7.83;98.01;99288.63;5130493;28;20274;-75
2023/04/29 01:41:01;;;;;;;1.33;1.23;;;;;;;7.72;99.68;99285.88;5130607;28;20224;-75
2023/04/29 01:43:32;;;;;;;1.53;1.37;;;;;;;7.64;100.00;99283.75;5130567;28;20287;-75
2023/04/29 01:46:00;;;;;;;3.80;1.77;;;;;;;7.52;100.00;99288.75;5130390;28;20780;-75
2023/04/29 01:48:28;;;;;;;1.63;1.10;;;;;;;7.22;100.00;99289.56;5130390;28;20201;-75
2023/04/29 01:50:55;;;;;;;0.60;0.57;;;;;;;7.10;100.00;99287.66;5130402;28;20220;-75
2023/04/29 01:53:21;;;;;;;2.10;1.33;;;;;;;7.07;100.00;99287.81;5130297;27;20688;-75
2023/04/29 01:55:48;;;;;;;1.50;1.23;;;;;;;7.06;100.00;99281.94;5130100;28;20216;-75
2023/04/29 01:58:16;;;;;;;1.70;1.40;;;;;;;7.00;100.00;99277.19;5132246;27;20284;-75
2023/04/29 02:00:43;;;;;;;1.87;1.13;;;;;;;7.00;100.00;99275.44;5134184;27;20293;-75
2023/04/29 02:03:10;;;;;;;2.33;1.53;;;;;;;6.94;100.00;99278.31;5134060;27;20292;-75
2023/04/29 02:05:38;;;;;;;1.97;1.50;;;;;;;6.84;100.00;99272.13;5134025;27;20655;-75
2023/04/29 02:08:06;;;;;;;2.17;1.33;;;;;;;6.91;100.00;99270.88;5134179;27;20211;-75
2023/04/29 02:10:33;;;;;;;2.03;1.50;;;;;;;6.88;100.00;99277.84;5133721;27;20303;-75
2023/04/29 02:13:00;;;;;;;1.93;1.30;;;;;;;6.80;100.00;99278.25;5133846;27;20667;-75
2023/04/29 02:15:28;;;;;;;1.90;1.60;;;;;;;6.83;100.00;99275.53;5133868;27;20687;-75
2023/04/29 02:17:57;;;;;;;1.60;1.20;;;;;;;6.78;100.00;99272.44;5133955;27;20287;-75
2023/04/29 02:20:23;;;;;;;2.27;1.43;;;;;;;6.87;100.00;99271.94;5133737;27;20231;-75
2023/04/29 02:22:50;;;;;;;3.13;1.50;;;;;;;6.65;100.00;99271.47;5133707;27;20204;-75
2023/04/29 02:25:17;;;;;;;1.10;1.03;;;;;;;6.44;100.00;99273.41;5133665;27;20299;-75
2023/04/29 02:27:44;;;;;;;1.50;1.40;;;;;;;6.61;100.00;99268.25;5133534;27;20197;-75
2023/04/29 02:30:11;;;;;;;8.40;1.20;;;;;;;6.67;100.00;99269.66;5133545;27;20284;-75
2023/04/29 02:32:39;;;;;;;4.07;1.90;;;;;;;6.71;100.00;99261.78;5133724;27;20228;-75
2023/04/29 02:35:07;;;;;;;2.10;1.83;;;;;;;6.76;100.00;99269.16;5133638;27;20219;-75
2023/04/29 02:37:34;;;;;;;1.30;1.03;;;;;;;6.72;100.00;99267.66;5133476;27;20208;-75
2023/04/29 02:40:02;;;;;;;1.17;1.07;;;;;;;6.85;100.00;99265.31;5133143;27;20220;-75
2023/04/29 02:42:29;;;;;;;1.47;1.37;;;;;;;6.78;100.00;99267.38;5133401;27;20199;-75
2023/04/29 02:44:56;;;;;;;1.30;1.20;;;;;;;6.76;100.00;99264.09;5133237;27;20234;-75
2023/04/29 02:47:23;;;;;;;1.53;1.40;;;;;;;6.86;100.00;99275.38;5133442;27;20207;-75
2023/04/29 02:49:52;;;;;;;1.50;0.90;;;;;;;6.81;100.00;99272.28;5133029;27;20212;-75
2023/04/29 02:52:19;;;;;;;1.30;1.20;;;;;;;6.92;100.00;99267.44;5133046;27;20232;-75
2023/04/29 02:54:45;;;;;;;2.00;1.50;;;;;;;6.89;100.00;99275.22;5133038;27;20246;-75
2023/04/29 02:57:12;;;;;;;1.77;1.43;;;;;;;6.85;100.00;99278.81;5132867;27;20196;-75
2023/04/29 02:59:39;;;;;;;2.20;1.87;;;;;;;6.85;100.00;99273.75;5132793;27;20778;-75
2023/04/29 03:02:06;;;;;;;1.23;1.13;;;;;;;6.90;100.00;99274.31;5132955;27;20200;-75
2023/04/29 03:04:33;;;;;;;1.97;1.40;;;;;;;6.81;100.00;99269.75;5132579;27;20235;-75
2023/04/29 03:07:01;;;;;;;2.33;1.27;;;;;;;6.83;100.00;99274.72;5132941;27;20740;-75
2023/04/29 03:09:28;;;;;;;1.20;1.10;;;;;;;6.67;100.00;99284.91;5133066;27;20213;-75
2023/04/29 03:11:55;;;;;;;2.27;1.30;;;;;;;6.58;100.00;99286.22;5132511;27;20228;-75
2023/04/29 03:14:21;;;;;;;1.30;1.20;;;;;;;6.45;100.00;99286.00;5132615;27;20280;-75
2023/04/29 03:16:48;;;;;;;1.53;1.43;;;;;;;6.50;100.00;99286.59;5132577;27;20203;-75
2023/04/29 03:19:15;;;;;;;1.77;1.30;;;;;;;6.48;100.00;99285.84;5132885;27;20711;-75
2023/04/29 03:21:42;;;;;;;4.37;2.33;;;;;;;6.53;100.00;99291.50;5132582;27;20449;-75
2023/04/29 03:24:10;;;;;;;7.07;3.70;;;;;;;6.41;100.00;99289.63;5132342;27;20228;-75
2023/04/29 03:26:37;;;;;;;3.37;2.63;;;;;;;6.39;100.00;99291.41;5132486;27;20205;-75
2023/04/29 03:29:04;;;;;;;3.10;2.33;;;;;;;6.32;100.00;99295.19;5132721;27;20251;-75
2023/04/29 03:31:30;;;;;;;1.63;1.53;;;;;;;6.29;100.00;99296.16;5132371;27;20204;-75
2023/04/29 03:33:57;;;;;;;1.60;1.20;;;;;;;6.30;100.00;99294.44;5132344;27;20197;-75
2023/04/29 03:36:24;;;;;;;2.00;1.50;;;;;;;6.35;100.00;99300.09;5132256;27;20204;-76
2023/04/29 03:38:51;;;;;;;2.17;0.87;;;;;;;6.39;100.00;99296.50;5132281;27;20204;-75
2023/04/29 03:41:19;;;;;;;2.37;1.20;;;;;;;6.48;100.00;99300.28;5132257;27;20204;-75
2023/04/29 03:43:46;;;;;;;1.57;1.43;;;;;;;6.52;100.00;99306.84;5132279;27;20676;-75
2023/04/29 03:46:13;;;;;;;10.13;1.50;;;;;;;6.58;100.00;99307.34;5132185;27;20220;-75
2023/04/29 03:48:40;;;;;;;2.37;1.20;;;;;;;6.57;100.00;99305.72;5132162;27;20737;-75
2023/04/29 03:51:07;;;;;;;2.97;1.43;;;;;;;6.56;100.00;99309.13;5131875;27;20521;-75
2023/04/29 03:53:35;;;;;;;1.60;1.50;;;;;;;6.62;100.00;99314.81;5131893;27;20277;-75
2023/04/29 03:56:02;;;;;;;2.80;2.07;;;;;;;6.64;100.00;99320.63;5131732;27;20220;-75
2023/04/29 03:58:30;;;;;;;1.57;1.43;;;;;;;6.72;100.00;99323.56;5132143;27;20204;-75
2023/04/29 04:00:57;;;;;;;2.37;1.30;;;;;;;6.80;100.00;99326.53;5131800;27;20220;-75
2023/04/29 04:03:26;;;;;;;2.17;1.47;;;;;;;6.75;100.00;99323.44;5131698;27;20213;-75
2023/04/29 04:05:53;;;;;;;1.93;1.73;;;;;;;6.63;100.00;99324.06;5131622;27;20225;-75
2023/04/29 04:08:20;;;;;;;3.10;1.57;;;;;;;6.65;100.00;99324.81;5131887;27;20204;-75
2023/04/29 04:10:46;;;;;;;3.73;2.43;;;;;;;6.55;100.00;99317.66;5131647;27;20707;-75
2023/04/29 04:13:13;;;;;;;1.60;1.43;;;;;;;6.63;100.00;99321.50;5131466;27;20224;-75
2023/04/29 04:15:41;;;;;;;1.37;1.27;;;;;;;6.62;100.00;99312.25;5131438;27;20758;-75
2023/04/29 04:18:08;;;;;;;3.13;2.07;;;;;;;6.63;100.00;99321.50;5131329;27;20205;-75
2023/04/29 04:20:37;;;;;;;1.50;1.33;;;;;;;6.72;100.00;99323.56;5130892;27;20224;-75
2023/04/29 04:23:03;;;;;;;1.17;0.80;;;;;;;6.79;100.00;99324.91;5131436;27;20203;-75
2023/04/29 04:25:30;;;;;;;1.53;1.40;;;;;;;6.77;100.00;99319.06;5131346;27;20247;-75
2023/04/29 04:27:57;;;;;;;1.53;1.17;;;;;;;6.80;100.00;99316.38;5131332;27;20270;-75
2023/04/29 04:30:24;;;;;;;1.50;1.33;;;;;;;6.83;100.00;99318.75;5131204;27;20220;-75
2023/04/29 04:32:52;;;;;;;2.10;1.20;;;;;;;6.92;100.00;99309.81;5131097;27;20244;-75
2023/04/29 04:35:19;;;;;;;1.47;1.23;;;;;;;6.93;100.00;99317.38;5130953;27;20213;-75
2023/04/29 04:37:46;;;;;;;3.07;2.23;;;;;;;6.97;100.00;99308.66;5131208;27;20249;-75
2023/04/29 04:40:13;;;;;;;1.93;1.60;;;;;;;7.11;100.00;99307.94;5130940;27;20248;-75
2023/04/29 04:42:40;;;;;;;2.93;2.50;;;;;;;7.13;100.00;99306.13;5130931;27;20193;-75
2023/04/29 04:45:10;;;;;;;4.60;3.40;;;;;;;7.25;100.00;99309.72;5130955;27;20703;-75
2023/04/29 04:47:36;;;;;;;5.90;3.47;;;;;;;7.45;100.00;99313.72;5131056;27;21280;-75
2023/04/29 04:50:06;;;;;;;4.67;2.23;;;;;;;7.52;100.00;99312.44;5130863;27;20240;-75
2023/04/29 04:52:33;;;;;;;2.00;1.53;;;;;;;7.72;100.00;99316.41;5130044;27;20228;-75
2023/04/29 04:55:00;;;;;;;1.53;1.43;;;;;;;7.98;100.00;99311.56;5131111;27;20715;-75
2023/04/29 04:57:27;;;;;;;1.33;1.23;;;;;;;8.06;100.00;99310.22;5130986;27;20196;-75
2023/04/29 04:59:53;;;;;;;1.70;1.30;;;;;;;8.09;100.00;99310.03;5130555;27;20227;-75
2023/04/29 05:02:20;;;;;;;2.00;1.50;;;;;;;8.31;100.00;99313.84;5130675;27;20200;-76
2023/04/29 05:04:47;;;;;;;1.57;1.23;;;;;;;8.57;100.00;99310.59;5131003;27;20224;-76
2023/04/29 05:07:15;;;;;;;1.90;1.40;;;;;;;8.83;100.00;99310.75;5130900;27;20207;-76
2023/04/29 05:09:42;;;;;;;1.80;1.57;;;;;;;8.99;100.00;99315.72;5130429;27;20792;-76
2023/04/29 05:12:08;;;;;;;3.13;2.10;;;;;;;9.13;100.00;99318.22;5130732;28;20201;-75
2023/04/29 05:14:35;;;;;;;2.07;1.70;;;;;;;9.25;98.82;99321.72;5130619;28;20227;-76
2023/04/29 05:17:02;;;;;;;3.23;1.97;;;;;;;9.36;95.97;99323.63;5130822;27;20192;-75
2023/04/29 05:19:29;;;;;;;2.13;1.60;;;;;;;9.55;97.39;99323.28;5130883;28;20240;-76
2023/04/29 05:21:56;;;;;;;1.53;1.43;;;;;;;9.54;98.51;99322.47;5130888;27;20201;-76
2023/04/29 05:24:25;;;;;;;3.43;1.90;;;;;;;9.68;97.41;99319.81;5130561;27;20227;-75
2023/04/29 05:26:53;;;;;;;4.47;1.93;;;;;;;9.82;98.42;99321.47;5130576;28;20220;-76
2023/04/29 05:29:19;;;;;;;3.40;1.83;;;;;;;9.93;96.67;99325.88;5130445;27;20875;-76
2023/04/29 05:31:46;;;;;;;2.93;2.00;;;;;;;10.28;95.68;99328.69;5131436;27;20249;-76
2023/04/29 05:34:13;;;;;;;1.90;1.70;;;;;;;10.46;94.78;99336.84;5134599;27;20700;-76
2023/04/29 05:36:40;;;;;;;3.07;2.03;;;;;;;10.65;94.71;99331.31;5134642;27;20923;-76
2023/04/29 05:39:07;;;;;;;1.67;1.47;;;;;;;10.85;90.71;99335.06;5134330;27;20197;-76
2023/04/29 05:41:35;;;;;;;2.73;2.03;;;;;;;11.05;90.02;99328.53;5134491;27;20196;-76
2023/04/29 05:44:02;;;;;;;4.10;2.17;;;;;;;11.00;87.12;99330.59;5134527;27;20200;-76
2023/04/29 05:46:29;;;;;;;3.50;2.20;;;;;;;11.08;86.30;99324.03;5134500;27;20201;-76
2023/04/29 05:48:55;;;;;;;7.53;2.23;;;;;;;11.27;85.54;99323.53;5135065;27;20206;-77
2023/04/29 05:51:22;;;;;;;2.13;1.80;;;;;;;11.56;81.73;99329.13;5134513;27;20236;-76
2023/04/29 05:53:49;;;;;;;2.77;1.90;;;;;;;11.75;83.31;99328.59;5134669;27;20658;-76
2023/04/29 05:56:16;;;;;;;3.03;2.00;;;;;;;12.25;80.91;99328.38;5134880;27;20200;-76
2023/04/29 05:58:45;;;;;;;3.53;1.97;;;;;;;12.48;81.88;99316.38;5134152;27;20751;-77
2023/04/29 06:01:11;;;;;;;3.60;1.83;;;;;;;12.68;75.88;99325.06;5134434;27;20224;-77
2023/04/29 06:03:38;;;;;;;2.43;1.80;;;;;;;12.77;73.51;99321.81;5133648;27;20277;-76
2023/04/29 06:06:05;;;;;;;3.10;1.93;;;;;;;13.04;69.95;99328.31;5134162;27;20229;-77
2023/04/29 06:08:32;;;;;;;3.63;2.17;;;;;;;13.30;70.83;99324.53;5134194;27;20271;-76
2023/04/29 06:10:59;;;;;;;2.03;1.83;;;;;;;13.31;70.61;99321.00;5133895;27;20253;-77
2023/04/29 06:13:26;;;;;;;2.03;1.60;;;;;;;13.84;69.38;99311.66;5134098;27;20527;-77
2023/04/29 06:15:54;;;;;;;4.83;1.80;;;;;;;13.55;68.33;99318.22;5134272;27;20227;-76
2023/04/29 06:18:21;;;;;;;1.97;1.70;;;;;;;13.68;71.01;99318.03;5133822;27;20229;-76
2023/04/29 06:20:48;;;;;;;2.93;1.87;;;;;;;14.45;69.37;99321.97;5134083;27;20609;-77
2023/04/29 06:23:15;;;;;;;2.50;1.63;;;;;;;14.14;67.01;99314.25;5134285;27;20196;-77
2023/04/29 06:25:42;;;;;;;3.07;2.40;;;;;;;14.54;66.88;99310.91;5133648;27;20224;-76
2023/04/29 06:28:09;;;;;;;2.60;1.97;;;;;;;14.63;62.81;99314.47;5133896;27;20579;-77
2023/04/29 06:30:36;;;;;;;4.77;1.90;;;;;;;14.64;64.67;99319.50;5133586;27;20303;-77
2023/04/29 06:33:04;;;;;;;3.07;2.10;;;;;;;14.15;62.53;99309.94;5133808;27;20228;-77
2023/04/29 06:35:31;;;;;;;2.77;2.10;;;;;;;14.47;64.69;99314.94;5133215;27;20240;-76
2023/04/29 06:37:58;;;;;;;2.33;2.10;;;;;;;14.03;62.93;99316.91;5133595;27;20215;-76
2023/04/29 06:40:25;;;;;;;3.10;2.10;;;;;;;14.08;67.40;99319.91;5133246;27;20707;-76
2023/04/29 06:42:52;;;;;;;4.80;1.97;;;;;;;14.64;62.72;99316.91;5133199;27;20290;-77
2023/04/29 06:45:19;;;;;;;2.73;2.00;;;;;;;14.80;67.55;99326.69;5132494;27;20767;-77
2023/04/29 06:47:45;;;;;;;2.37;1.93;;;;;;;14.67;63.90;99316.66;5133306;27;20587;-76
2023/04/29 06:50:14;;;;;;;2.13;1.83;;;;;;;14.52;63.61;99317.97;5133180;27;20219;-77
2023/04/29 06:52:40;;;;;;;3.07;1.87;;;;;;;14.65;65.35;99308.25;5133165;27;20285;-76
2023/04/29 06:55:08;;;;;;;4.90;2.63;;;;;;;14.97;63.68;99306.41;5132850;27;20217;-77
2023/04/29 06:57:35;;;;;;;3.50;2.10;;;;;;;14.98;62.86;99308.03;5132972;27;20705;-77
2023/04/29 07:00:03;;;;;;;3.30;2.20;;;;;;;15.35;63.42;99316.75;5132859;27;20311;-76
2023/04/29 07:02:30;;;;;;;2.63;1.90;;;;;;;15.20;62.59;99317.28;5133224;27;20625;-77
2023/04/29 07:04:57;;;;;;;2.97;2.30;;;;;;;15.25;65.23;99321.09;5132970;27;20621;-77
2023/04/29 07:07:25;;;;;;;4.70;2.17;;;;;;;15.48;63.74;99324.22;5133060;27;20692;-76
2023/04/29 07:09:53;;;;;;;4.00;1.87;;;;;;;15.61;63.49;99322.16;5132635;27;20212;-77
2023/04/29 07:12:20;;;;;;;3.40;2.40;;;;;;;16.20;64.07;99322.91;5132658;27;20193;-77
2023/04/29 07:14:46;;;;;;;2.63;2.10;;;;;;;16.25;59.07;99330.19;5132644;27;20235;-77
2023/04/29 07:17:13;;;;;;;2.97;1.97;;;;;;;16.57;64.09;99323.81;5132917;27;20735;-76
2023/04/29 07:19:40;;;;;;;2.87;1.80;;;;;;;16.57;59.10;99323.81;5132767;27;20252;-77
2023/04/29 07:22:07;;;;;;;3.07;2.07;;;;;;;16.51;59.31;99326.00;5132693;27;20196;-77
2023/04/29 07:24:35;;;;;;;3.07;2.20;;;;;;;16.10;58.49;99321.28;5132987;27;20224;-76
2023/04/29 07:27:02;;;;;;;3.40;2.20;;;;;;;16.67;64.31;99319.44;5132909;27;20201;-77
2023/04/29 07:29:28;;;;;;;4.70;2.33;;;;;;;16.76;60.15;99321.19;5132433;27;20276;-76
2023/04/29 07:31:56;;;;;;;3.30;2.03;;;;;;;16.63;59.69;99323.25;5132484;27;20190;-76
2023/04/29 07:34:23;;;;;;;3.10;2.27;;;;;;;16.92;58.23;99323.91;5132524;27;20808;-77
2023/04/29 07:36:49;;;;;;;4.10;2.33;;;;;;;17.11;59.21;99328.16;5132172;27;20229;-76
2023/04/29 07:39:17;;;;;;;3.10;1.77;;;;;;;17.53;57.15;99321.56;5132598;27;20607;-77
2023/04/29 07:41:45;;;;;;;4.03;2.23;;;;;;;17.62;57.18;99311.13;5132453;27;20203;-77
2023/04/29 07:44:12;;;;;;;4.37;2.30;;;;;;;16.96;54.09;99311.56;5132179;27;20219;-77
2023/04/29 07:46:38;;;;;;;3.30;2.23;;;;;;;17.14;55.37;99311.56;5131918;27;20202;-76
2023/04/29 07:49:06;;;;;;;3.67;2.00;;;;;;;17.58;57.08;99314.19;5132308;27;20579;-77
2023/04/29 07:51:32;;;;;;;2.70;1.90;;;;;;;17.11;57.02;99312.66;5132331;27;20679;-76
2023/04/29 07:53:59;;;;;;;3.40;2.00;;;;;;;17.33;57.78;99311.38;5132430;27;20223;-76
2023/04/29 07:56:26;;;;;;;3.47;2.17;;;;;;;17.08;56.69;99315.53;5131251;27;20699;-77
2023/04/29 07:58:54;;;;;;;3.47;2.20;;;;;;;17.29;57.94;99315.25;5131780;27;20472;-77
2023/04/29 08:01:21;;;;;;;3.80;2.57;;;;;;;16.34;56.28;99308.69;5132106;27;20204;-77
2023/04/29 08:03:48;;;;;;;3.03;2.07;;;;;;;17.13;59.77;99312.50;5131810;27;20204;-77
2023/04/29 08:06:15;;;;;;;4.90;2.00;;;;;;;17.57;57.65;99307.38;5131784;27;20674;-77
2023/04/29 08:08:42;;;;;;;5.07;2.60;;;;;;;18.38;59.48;99308.84;5131862;27;20312;-77
2023/04/29 08:11:15;;;;;;;3.57;2.03;;;;;;;18.67;55.75;99306.69;5131737;27;20221;-76
2023/04/29 08:13:42;;;;;;;2.90;2.20;;;;;;;18.25;55.96;99307.50;5131504;27;20611;-76
2023/04/29 08:16:11;;;;;;;5.67;2.23;;;;;;;18.68;55.66;99312.72;5131668;27;20222;-77
2023/04/29 08:18:37;;;;;;;3.50;2.57;;;;;;;18.63;53.09;99308.00;5131815;27;20253;-77
2023/04/29 08:21:04;;;;;;;2.93;2.10;;;;;;;17.66;55.49;99303.91;5131383;27;20225;-77
2023/04/29 08:23:31;;;;;;;6.30;2.40;;;;;;;18.09;57.25;99304.84;5131352;27;20254;-77
2023/04/29 08:25:58;;;;;;;4.07;2.20;;;;;;;18.38;56.95;99303.69;5132014;27;20270;-77
2023/04/29 08:28:26;;;;;;;3.60;2.67;;;;;;;18.70;54.70;99311.59;5131861;27;20201;-77
2023/04/29 08:30:53;;;;;;;4.13;1.90;;;;;;;19.00;51.16;99301.63;5131597;27;20272;-77
2023/04/29 08:33:21;;;;;;;6.27;2.57;;;;;;;19.10;51.46;99298.88;5131574;27;20201;-77
2023/04/29 08:35:48;;;;;;;3.80;2.03;;;;;;;18.21;53.38;99302.78;5130977;27;20275;-77
2023/04/29 08:38:15;;;;;;;3.13;2.00;;;;;;;18.92;55.11;99299.03;5131391;27;20196;-77
2023/04/29 08:40:44;;;;;;;2.23;2.03;;;;;;;19.22;49.89;99297.59;5131056;27;20233;-77
2023/04/29 08:43:13;;;;;;;4.20;2.30;;;;;;;19.12;50.28;99304.72;5131323;27;20222;-77
2023/04/29 08:45:41;;;;;;;2.83;1.97;;;;;;;18.90;49.74;99300.97;5131183;27;20219;-77
2023/04/29 08:48:08;;;;;;;4.27;2.10;;;;;;;19.85;49.57;99296.13;5130882;27;20204;-77
2023/04/29 08:50:39;;;;;;;3.43;2.10;;;;;;;19.94;45.85;99300.34;5131006;27;20281;-77
2023/04/29 08:53:07;;;;;;;2.73;1.93;;;;;;;20.66;45.92;99299.47;5134499;27;20204;-78
2023/04/29 08:55:36;;;;;;;3.23;2.03;;;;;;;20.05;48.72;99296.59;5131832;27;20243;-79
2023/04/29 08:58:03;;;;;;;5.57;2.17;;;;;;;18.37;46.08;99299.47;5132302;27;20269;-79
2023/04/29 09:00:33;;;;;;;4.23;1.80;;;;;;;19.55;50.42;99290.66;5134438;27;20231;-79
2023/04/29 09:03:04;;;;;;;2.77;1.90;;;;;;;20.12;47.68;99300.13;5132358;27;20196;-79
2023/04/29 09:05:35;;;;;;;2.80;1.90;;;;;;;20.84;46.33;99297.41;5133100;27;20606;-79
2023/04/29 09:08:05;;;;;;;3.47;2.07;;;;;;;20.81;43.03;99292.53;5133388;27;20208;-78
2023/04/29 09:10:32;;;;;;;1.97;1.77;;;;;;;20.22;43.80;99290.38;5132790;27;20215;-79
2023/04/29 09:12:59;;;;;;;4.77;2.43;;;;;;;20.69;44.51;99286.13;5133809;27;20194;-78
2023/04/29 09:15:26;;;;;;;2.47;1.87;;;;;;;21.37;43.11;99282.75;5136682;28;20342;-78
2023/04/29 09:17:52;;;;;;;5.23;2.10;;;;;;;21.82;41.70;99278.44;5134636;28;20268;-78
2023/04/29 09:20:30;;;;;;;3.15;1.90;;;;;;;20.84;40.67;99276.59;5136458;28;20300;-78
2023/04/29 09:22:58;;;;;;;3.17;2.10;;;;;;;19.29;43.42;99280.44;5134732;28;20204;-78
2023/04/29 09:25:27;;;;;;;2.50;1.90;;;;;;;19.66;44.71;99279.97;5134637;27;20213;-78
2023/04/29 09:27:55;;;;;;;3.83;2.20;;;;;;;20.56;45.48;99274.47;5132936;27;20870;-78
2023/04/29 09:30:22;;;;;;;2.50;1.90;;;;;;;21.69;40.93;99271.22;5134295;28;20580;-78
2023/04/29 09:33:06;;;;;;;3.92;1.83;;;;;;;21.73;40.51;99268.25;5133322;28;20208;-77
2023/04/29 09:35:33;;;;;;;3.03;2.23;;;;;;;21.20;40.60;99265.63;5132814;28;20684;-77
2023/04/29 09:38:11;;;;;;;3.30;2.10;;;;;;;21.07;40.97;99261.03;5130964;28;20678;-77
2023/04/29 09:40:40;;;;;;;2.30;1.73;;;;;;;21.17;40.54;99265.97;5131155;28;20234;-77
2023/04/29 09:43:14;;;;;;;1.67;1.55;;;;;;;21.11;38.74;99261.47;5130571;28;20197;-77
2023/04/29 09:45:42;;;;;;;3.13;1.90;;;;;;;21.59;41.85;99252.47;5130866;28;20244;-77
2023/04/29 09:48:10;;;;;;;2.92;1.88;;;;;;;21.27;42.77;99256.16;5132782;28;20212;-78
2023/04/29 09:50:37;;;;;;;1.98;1.67;;;;;;;21.60;42.00;99253.28;5132905;28;20223;-77
2023/04/29 09:53:04;;;;;;;2.40;1.90;;;;;;;22.03;41.77;99250.88;5131812;28;20261;-77
2023/04/29 09:55:31;;;;;;;2.88;1.95;;;;;;;21.97;40.34;99246.38;5132499;28;20265;-76
2023/04/29 09:58:00;;;;;;;2.15;1.83;;;;;;;22.03;40.83;99246.47;5131608;28;20292;-78
2023/04/29 10:00:31;;;;;;;2.50;2.00;;;;;;;21.43;40.61;99245.63;5131526;28;20250;-77
2023/04/29 10:03:00;;;;;;;4.65;2.00;;;;;;;21.95;40.10;99245.75;5130577;28;20197;-78
2023/04/29 10:05:29;;;;;;;4.03;2.08;;;;;;;22.30;40.31;99239.81;5130921;28;20273;-77
2023/04/29 10:07:58;;;;;;;2.60;1.70;;;;;;;21.65;39.74;99230.13;5130446;28;20655;-77
2023/04/29 10:10:25;;;;;;;6.03;1.90;;;;;;;21.96;38.72;99234.34;5129928;28;20760;-77
2023/04/29 10:12:53;;;;;;;3.17;1.80;;;;;;;21.73;43.78;99232.66;5130021;28;20196;-77
2023/04/29 10:15:27;;;;;;;3.63;1.97;;;;;;;21.95;42.65;99237.94;5130041;28;20303;-78
2023/04/29 10:18:00;;;;;;;4.10;2.10;;;;;;;21.82;39.13;99228.97;5131735;27;20226;-77
2023/04/29 10:20:28;;;;;;;3.03;2.00;;;;;;;21.21;40.05;99221.25;5135455;27;20220;-77
2023/04/29 10:22:58;;;;;;;2.50;2.00;;;;;;;21.82;39.49;99226.38;5135901;27;20743;-77
2023/04/29 10:25:26;;;;;;;2.22;1.77;;;;;;;21.55;40.92;99226.97;5135800;27;20644;-78
2023/04/29 10:27:55;;;;;;;3.60;2.13;;;;;;;21.85;40.21;99228.63;5134982;27;20197;-77
2023/04/29 10:30:24;;;;;;;2.17;1.70;;;;;;;22.30;36.49;99221.56;5134867;27;20228;-77
2023/04/29 10:32:51;;;;;;;3.17;1.75;;;;;;;22.25;40.39;99223.94;5133792;27;20636;-77
2023/04/29 10:35:21;;;;;;;3.28;1.67;;;;;;;21.80;37.67;99225.72;5135482;27;20232;-77
2023/04/29 10:37:49;;;;;;;3.17;1.70;;;;;;;21.54;43.19;99222.75;5135579;27;20223;-78
2023/04/29 10:40:20;;;;;;;2.20;1.90;;;;;;;21.10;38.81;99215.66;5134843;27;20223;-77
2023/04/29 10:42:49;;;;;;;3.08;2.08;;;;;;;22.26;44.22;99215.13;5135077;27;20280;-78
2023/04/29 10:45:25;;;;;;;2.28;1.90;;;;;;;22.66;42.56;99212.94;5136266;27;20216;-77
2023/04/29 10:48:26;;;;;;;2.63;1.85;;;;;;;22.63;41.33;99213.31;5137374;27;20215;-78
2023/04/29 10:51:03;;;;;;;2.28;1.63;;;;;;;23.00;40.97;99206.25;5136560;27;20221;-78
2023/04/29 10:53:30;;;;;;;2.88;1.70;;;;;;;23.02;42.54;99205.06;5134156;27;20196;-77
2023/04/29 10:55:59;;;;;;;2.20;1.65;;;;;;;22.52;36.99;99211.19;5133200;27;20256;-76
2023/04/29 10:58:35;;;;;;;3.28;1.90;;;;;;;22.73;43.09;99203.38;5135665;27;20710;-77
2023/04/29 11:01:04;;;;;;;3.20;1.90;;;;;;;22.85;37.85;99202.88;5133998;27;20248;-77
2023/04/29 11:03:53;;;;;;;2.70;1.70;;;;;;;22.42;38.12;99208.88;5133528;27;20203;-77
2023/04/29 11:06:22;;;;;;;3.42;2.00;;;;;;;21.78;41.05;99206.88;5134458;27;20189;-76
2023/04/29 11:09:00;;;;;;;2.58;1.90;;;;;;;22.12;41.00;99197.69;5134038;27;20201;-77
2023/04/29 11:11:39;;;;;;;1.98;1.70;;;;;;;21.97;40.77;99199.53;5133172;27;20196;-77
2023/04/29 11:14:09;;;;;;;3.35;1.92;;;;;;;22.07;40.79;99194.81;5132883;27;20633;-77
2023/04/29 11:16:37;;;;;;;2.50;1.90;;;;;;;21.23;38.74;99182.88;5133987;27;20208;-78
2023/04/29 11:19:07;;;;;;;2.27;1.70;;;;;;;21.53;43.82;99187.34;5137429;27;20269;-78
2023/04/29 11:21:35;;;;;;;3.97;1.98;;;;;;;21.27;40.46;99182.53;5136837;27;20266;-78
2023/04/29 11:24:03;;;;;;;1.90;1.63;;;;;;;21.48;41.22;99180.88;5138512;27;20240;-77
2023/04/29 11:26:30;;;;;;;4.03;2.00;;;;;;;21.66;39.23;99182.31;5133723;27;20806;-78
2023/04/29 11:28:58;;;;;;;2.83;1.70;;;;;;;21.56;39.04;99186.97;5132361;27;20204;-77
2023/04/29 11:31:28;;;;;;;2.60;1.80;;;;;;;21.35;40.64;99180.66;5131828;27;20201;-77
2023/04/29 11:33:57;;;;;;;4.07;2.00;;;;;;;21.22;42.60;99170.06;5131837;27;20197;-77
2023/04/29 11:36:24;;;;;;;4.87;1.80;;;;;;;21.50;41.70;99172.06;5131989;27;20643;-77
2023/04/29 11:38:51;;;;;;;2.77;1.83;;;;;;;21.08;40.45;99163.03;5132726;27;20200;-77